createdAt,value
2017-09-25T00:00:44.883Z,88.1
2017-09-25T00:01:46.279Z,88.8
2017-09-25T00:02:47.667Z,88.1
2017-09-25T00:03:49.058Z,87.7
2017-09-25T00:04:50.447Z,87.2
2017-09-25T00:05:51.840Z,87.6
2017-09-25T00:06:53.228Z,87.3
2017-09-25T00:07:54.616Z,87.4
2017-09-25T00:08:56.010Z,87.1
2017-09-25T00:09:57.399Z,86.9
2017-09-25T00:10:58.787Z,86.6
2017-09-25T00:12:00.175Z,86.3
2017-09-25T00:13:01.561Z,86.7
2017-09-25T00:14:02.952Z,86.4
2017-09-25T00:15:04.340Z,86.8
2017-09-25T00:16:05.732Z,86.9
2017-09-25T00:17:07.120Z,87.1
2017-09-25T00:18:08.509Z,87.4
2017-09-25T00:19:09.896Z,87.5
2017-09-25T00:20:11.284Z,87.3
2017-09-25T00:21:12.674Z,87.5
2017-09-25T00:22:14.067Z,88.0
2017-09-25T00:23:15.458Z,88.3
2017-09-25T00:24:16.848Z,89.1
2017-09-25T00:25:18.234Z,88.9
2017-09-25T00:26:19.623Z,89.6
2017-09-25T00:27:21.013Z,89.3
2017-09-25T00:28:22.404Z,89.2
2017-09-25T00:29:23.792Z,89.2
2017-09-25T00:30:25.185Z,88.9
2017-09-25T00:31:26.572Z,88.8
2017-09-25T00:32:27.962Z,89.0
2017-09-25T00:33:29.364Z,89.6
2017-09-25T00:34:30.757Z,89.6
2017-09-25T00:35:32.146Z,89.7
2017-09-25T00:36:33.535Z,89.7
2017-09-25T00:37:34.925Z,90.2
2017-09-25T00:38:36.317Z,90.5
2017-09-25T00:39:37.707Z,91.3
2017-09-25T00:40:39.093Z,90.9
2017-09-25T00:41:40.481Z,90.8
2017-09-25T00:42:41.870Z,91.0
2017-09-25T00:43:43.263Z,90.7
2017-09-25T00:44:44.656Z,90.5
2017-09-25T00:45:46.045Z,90.9
2017-09-25T00:46:47.431Z,91.0
2017-09-25T00:47:48.820Z,91.0
2017-09-25T00:48:50.208Z,90.9
2017-09-25T00:49:51.599Z,90.9
2017-09-25T00:50:52.988Z,91.7
2017-09-25T00:51:54.377Z,91.5
2017-09-25T00:52:55.768Z,91.4
2017-09-25T00:53:57.154Z,92.1
2017-09-25T00:54:58.547Z,91.9
2017-09-25T00:55:59.934Z,92.0
2017-09-25T00:57:01.330Z,91.3
2017-09-25T00:58:02.751Z,91.5
2017-09-25T00:59:04.140Z,91.3
2017-09-25T01:00:05.529Z,91.4
2017-09-25T01:01:06.918Z,90.8
2017-09-25T01:02:08.306Z,90.3
2017-09-25T01:03:09.696Z,90.6
2017-09-25T01:04:11.086Z,90.2
2017-09-25T01:05:12.481Z,90.6
2017-09-25T01:06:13.869Z,90.9
2017-09-25T01:07:15.262Z,91.2
2017-09-25T01:08:16.649Z,91.4
2017-09-25T01:09:18.036Z,91.7
2017-09-25T01:10:19.426Z,91.4
2017-09-25T01:11:20.816Z,91.6
2017-09-25T01:12:22.207Z,92.1
2017-09-25T01:13:23.596Z,91.8
2017-09-25T01:14:24.988Z,91.9
2017-09-25T01:15:26.375Z,92.0
2017-09-25T01:16:27.766Z,92.4
2017-09-25T01:17:29.157Z,91.4
2017-09-25T01:18:30.547Z,91.3
2017-09-25T01:19:31.935Z,91.0
2017-09-25T01:20:33.326Z,90.8
2017-09-25T01:21:34.718Z,91.1
2017-09-25T01:22:36.107Z,90.9
2017-09-25T01:23:37.493Z,90.9
2017-09-25T01:24:38.881Z,90.8
2017-09-25T01:25:40.274Z,90.8
2017-09-25T01:26:41.660Z,90.8
2017-09-25T01:27:43.053Z,90.9
2017-09-25T01:28:44.441Z,90.3
2017-09-25T01:29:45.827Z,90.0
2017-09-25T01:30:47.216Z,89.6
2017-09-25T01:31:48.606Z,89.7
2017-09-25T01:32:49.994Z,89.5
2017-09-25T01:33:51.383Z,89.3
2017-09-25T01:34:52.772Z,89.2
2017-09-25T01:35:54.175Z,89.7
2017-09-25T01:36:55.563Z,89.5
2017-09-25T01:37:56.949Z,88.7
2017-09-25T01:38:58.336Z,89.3
2017-09-25T01:39:59.728Z,88.9
2017-09-25T01:41:01.115Z,89.2
2017-09-25T01:42:02.526Z,89.4
2017-09-25T01:43:03.917Z,89.3
2017-09-25T01:44:05.305Z,89.3
2017-09-25T01:45:06.695Z,89.3
2017-09-25T01:46:08.084Z,89.0
2017-09-25T01:47:09.476Z,89.1
2017-09-25T01:48:10.864Z,89.3
2017-09-25T01:49:12.252Z,89.0
2017-09-25T01:50:13.642Z,89.1
2017-09-25T01:51:15.028Z,88.9
2017-09-25T01:52:16.424Z,88.9
2017-09-25T01:53:17.807Z,88.9
2017-09-25T01:54:19.211Z,89.0
2017-09-25T01:55:20.594Z,88.8
2017-09-25T01:56:21.983Z,88.7
2017-09-25T01:57:23.371Z,89.2
2017-09-25T01:58:24.760Z,88.9
2017-09-25T01:59:26.148Z,89.1
2017-09-25T02:00:27.534Z,89.3
2017-09-25T02:01:28.925Z,88.8
2017-09-25T02:02:30.313Z,88.6
2017-09-25T02:03:31.704Z,89.3
2017-09-25T02:04:33.095Z,88.5
2017-09-25T02:05:34.485Z,89.6
2017-09-25T02:06:35.869Z,89.1
2017-09-25T02:07:37.258Z,89.0
2017-09-25T02:08:38.648Z,88.8
2017-09-25T02:09:40.034Z,89.1
2017-09-25T02:10:41.427Z,89.3
2017-09-25T02:11:42.816Z,89.2
2017-09-25T02:12:44.207Z,89.7
2017-09-25T02:13:45.593Z,90.1
2017-09-25T02:14:46.984Z,90.3
2017-09-25T02:15:48.373Z,90.2
2017-09-25T02:16:49.763Z,90.6
2017-09-25T02:17:51.153Z,90.7
2017-09-25T02:18:52.543Z,90.6
2017-09-25T02:19:53.925Z,90.9
2017-09-25T02:20:55.313Z,90.6
2017-09-25T02:21:56.701Z,90.7
2017-09-25T02:22:58.091Z,90.8
2017-09-25T02:23:59.479Z,90.7
2017-09-25T02:25:00.870Z,90.7
2017-09-25T02:26:02.268Z,91.0
2017-09-25T02:27:03.652Z,91.7
2017-09-25T02:28:05.042Z,91.5
2017-09-25T02:29:06.429Z,91.6
2017-09-25T02:30:07.818Z,91.8
2017-09-25T02:31:09.205Z,92.2
2017-09-25T02:32:10.597Z,91.8
2017-09-25T02:33:11.990Z,91.9
2017-09-25T02:34:13.378Z,91.9
2017-09-25T02:35:14.765Z,92.0
2017-09-25T02:36:16.151Z,91.4
2017-09-25T02:37:17.567Z,91.4
2017-09-25T02:38:18.954Z,91.2
2017-09-25T02:39:20.348Z,90.5
2017-09-25T02:40:21.771Z,90.7
2017-09-25T02:41:23.124Z,90.8
2017-09-25T02:42:24.512Z,91.1
2017-09-25T02:43:25.901Z,91.4
2017-09-25T02:44:27.289Z,92.5
2017-09-25T02:45:28.677Z,92.7
2017-09-25T02:46:30.067Z,92.8
2017-09-25T02:47:31.462Z,93.2
2017-09-25T02:48:32.853Z,93.7
2017-09-25T02:49:34.237Z,93.3
2017-09-25T02:50:35.629Z,94.0
2017-09-25T02:51:37.017Z,93.7
2017-09-25T02:52:38.407Z,93.1
2017-09-25T02:53:39.798Z,93.5
2017-09-25T02:54:41.189Z,93.2
2017-09-25T02:55:42.576Z,93.1
2017-09-25T02:56:43.963Z,93.1
2017-09-25T02:57:45.351Z,93.3
2017-09-25T02:58:46.743Z,92.6
2017-09-25T02:59:48.130Z,92.5
2017-09-25T03:00:49.525Z,93.0
2017-09-25T03:01:50.917Z,92.6
2017-09-25T03:02:52.300Z,92.4
2017-09-25T03:03:53.690Z,92.4
2017-09-25T03:04:55.079Z,91.8
2017-09-25T03:05:56.470Z,92.2
2017-09-25T03:06:57.856Z,92.5
2017-09-25T03:07:59.248Z,92.5
2017-09-25T03:09:00.639Z,92.4
2017-09-25T03:10:02.027Z,92.4
2017-09-25T03:11:03.415Z,92.5
2017-09-25T03:12:04.805Z,92.0
2017-09-25T03:13:06.193Z,91.8
2017-09-25T03:14:07.581Z,91.5
2017-09-25T03:15:08.971Z,91.3
2017-09-25T03:16:10.364Z,91.2
2017-09-25T03:17:11.750Z,91.5
2017-09-25T03:18:13.137Z,91.3
2017-09-25T03:19:14.522Z,91.6
2017-09-25T03:20:15.911Z,90.6
2017-09-25T03:21:17.303Z,90.9
2017-09-25T03:22:18.697Z,90.8
2017-09-25T03:23:20.086Z,90.7
2017-09-25T03:24:21.471Z,90.9
2017-09-25T03:25:22.865Z,90.7
2017-09-25T03:26:24.254Z,90.8
2017-09-25T03:27:25.641Z,91.3
2017-09-25T03:28:27.029Z,91.1
2017-09-25T03:29:28.419Z,90.9
2017-09-25T03:30:29.811Z,90.6
2017-09-25T03:31:31.196Z,90.9
2017-09-25T03:32:32.586Z,90.7
2017-09-25T03:33:33.973Z,91.1
2017-09-25T03:34:35.371Z,90.8
2017-09-25T03:35:36.757Z,91.2
2017-09-25T03:36:38.143Z,90.6
2017-09-25T03:37:39.535Z,90.4
2017-09-25T03:38:40.926Z,90.6
2017-09-25T03:39:42.315Z,90.9
2017-09-25T03:40:43.704Z,90.3
2017-09-25T03:41:45.094Z,90.3
2017-09-25T03:42:46.481Z,89.7
2017-09-25T03:43:47.884Z,90.2
2017-09-25T03:44:49.296Z,89.9
2017-09-25T03:45:50.675Z,90.5
2017-09-25T03:46:52.067Z,90.2
2017-09-25T03:47:53.454Z,90.2
2017-09-25T03:48:54.843Z,90.5
2017-09-25T03:49:56.233Z,90.2
2017-09-25T03:50:57.623Z,90.8
2017-09-25T03:51:59.013Z,89.7
2017-09-25T03:53:00.398Z,90.8
2017-09-25T03:54:01.786Z,90.4
2017-09-25T03:55:03.174Z,90.8
2017-09-25T03:56:04.566Z,90.9
2017-09-25T03:57:05.956Z,90.8
2017-09-25T03:58:07.347Z,90.5
2017-09-25T03:59:08.736Z,90.6
2017-09-25T04:00:10.134Z,90.6
2017-09-25T04:01:11.510Z,90.4
2017-09-25T04:02:12.901Z,91.1
2017-09-25T04:03:14.288Z,90.2
2017-09-25T04:04:15.680Z,90.6
2017-09-25T04:05:17.064Z,90.4
2017-09-25T04:06:18.417Z,90.5
2017-09-25T04:07:19.804Z,90.2
2017-09-25T04:08:21.191Z,90.2
2017-09-25T04:09:22.578Z,89.4
2017-09-25T04:10:23.969Z,89.7
2017-09-25T04:11:25.358Z,90.1
2017-09-25T04:12:26.748Z,90.2
2017-09-25T04:13:28.135Z,90.5
2017-09-25T04:14:29.525Z,90.5
2017-09-25T04:15:30.911Z,90.5
2017-09-25T04:16:32.331Z,90.8
2017-09-25T04:17:33.721Z,90.4
2017-09-25T04:18:35.107Z,91.2
2017-09-25T04:19:36.499Z,91.5
2017-09-25T04:20:37.887Z,91.5
2017-09-25T04:21:39.273Z,91.4
2017-09-25T04:22:40.661Z,91.4
2017-09-25T04:23:42.049Z,91.7
2017-09-25T04:24:43.439Z,92.3
2017-09-25T04:25:44.828Z,92.6
2017-09-25T04:26:46.217Z,92.6
2017-09-25T04:27:47.605Z,92.9
2017-09-25T04:28:48.992Z,93.4
2017-09-25T04:29:50.380Z,92.9
2017-09-25T04:30:51.769Z,93.1
2017-09-25T04:31:53.156Z,93.1
2017-09-25T04:32:54.545Z,93.4
2017-09-25T04:33:55.934Z,93.1
2017-09-25T04:34:57.327Z,93.4
2017-09-25T04:35:58.710Z,93.1
2017-09-25T04:37:00.098Z,93.8
2017-09-25T04:38:01.485Z,93.2
2017-09-25T04:39:02.873Z,93.4
2017-09-25T04:40:04.265Z,93.5
2017-09-25T04:41:05.667Z,93.0
2017-09-25T04:42:07.056Z,93.7
2017-09-25T04:43:08.444Z,94.3
2017-09-25T04:44:09.829Z,94.4
2017-09-25T04:45:11.216Z,94.3
2017-09-25T04:46:12.610Z,93.7
2017-09-25T04:47:13.995Z,93.8
2017-09-25T04:48:15.385Z,93.9
2017-09-25T04:49:16.807Z,93.4
2017-09-25T04:50:18.162Z,93.1
2017-09-25T04:51:19.548Z,93.3
2017-09-25T04:52:20.938Z,93.4
2017-09-25T04:53:22.327Z,92.9
2017-09-25T04:54:23.716Z,92.8
2017-09-25T04:55:25.105Z,93.3
2017-09-25T04:56:26.497Z,93.1
2017-09-25T04:57:27.881Z,92.5
2017-09-25T04:58:29.269Z,92.6
2017-09-25T04:59:30.655Z,92.9
2017-09-25T05:00:32.046Z,93.0
2017-09-25T05:01:33.435Z,93.3
2017-09-25T05:02:34.820Z,93.6
2017-09-25T05:03:36.208Z,93.3
2017-09-25T05:04:37.596Z,93.1
2017-09-25T05:05:38.985Z,93.8
2017-09-25T05:06:40.374Z,93.5
2017-09-25T05:07:41.764Z,93.7
2017-09-25T05:08:43.151Z,93.8
2017-09-25T05:09:44.541Z,93.4
2017-09-25T05:10:45.932Z,93.9
2017-09-25T05:11:47.323Z,92.9
2017-09-25T05:12:48.708Z,93.2
2017-09-25T05:13:50.097Z,93.4
2017-09-25T05:14:51.488Z,93.9
2017-09-25T05:15:52.875Z,93.9
2017-09-25T05:16:54.265Z,93.9
2017-09-25T05:17:55.657Z,93.7
2017-09-25T05:18:57.041Z,93.6
2017-09-25T05:19:58.432Z,93.0
2017-09-25T05:20:59.817Z,93.3
2017-09-25T05:22:01.221Z,93.0
2017-09-25T05:23:02.633Z,93.6
2017-09-25T05:24:04.026Z,93.0
2017-09-25T05:25:05.419Z,93.8
2017-09-25T05:26:06.805Z,94.0
2017-09-25T05:27:08.195Z,93.9
2017-09-25T05:28:09.586Z,93.9
2017-09-25T05:29:10.981Z,93.7
2017-09-25T05:30:12.367Z,93.9
2017-09-25T05:31:13.760Z,93.8
2017-09-25T05:32:15.154Z,93.4
2017-09-25T05:33:16.543Z,93.4
2017-09-25T05:34:17.932Z,93.2
2017-09-25T05:35:19.321Z,93.6
2017-09-25T05:36:20.712Z,93.2
2017-09-25T05:37:22.107Z,93.6
2017-09-25T05:38:23.493Z,93.6
2017-09-25T05:39:24.885Z,93.4
2017-09-25T05:40:26.380Z,93.1
2017-09-25T05:41:27.768Z,94.0
2017-09-25T05:42:29.162Z,93.1
2017-09-25T05:43:30.554Z,93.0
2017-09-25T05:44:31.948Z,93.0
2017-09-25T05:45:33.338Z,93.8
2017-09-25T05:46:34.732Z,93.4
2017-09-25T05:47:36.138Z,93.6
2017-09-25T05:48:37.522Z,93.5
2017-09-25T05:49:38.920Z,93.3
2017-09-25T05:50:40.311Z,93.6
2017-09-25T05:51:41.705Z,93.6
2017-09-25T05:52:43.094Z,93.5
2017-09-25T05:53:44.488Z,93.3
2017-09-25T05:54:45.879Z,93.2
2017-09-25T05:55:47.300Z,93.5
2017-09-25T05:56:48.692Z,93.2
2017-09-25T05:57:50.085Z,93.5
2017-09-25T05:58:51.475Z,93.3
2017-09-25T05:59:52.870Z,93.5
2017-09-25T06:00:54.275Z,93.4
2017-09-25T06:01:55.666Z,92.7
2017-09-25T06:02:57.110Z,92.7
2017-09-25T06:03:58.495Z,92.7
2017-09-25T06:05:00.729Z,92.7
2017-09-25T06:06:02.323Z,92.4
2017-09-25T06:07:03.980Z,92.7
2017-09-25T06:08:05.621Z,92.2
2017-09-25T06:09:07.009Z,92.4
2017-09-25T06:10:08.399Z,91.9
2017-09-25T06:11:09.791Z,91.9
2017-09-25T06:12:11.184Z,91.5
2017-09-25T06:13:12.574Z,91.3
2017-09-25T06:14:13.966Z,91.5
2017-09-25T06:15:15.361Z,91.2
2017-09-25T06:16:16.753Z,90.5
2017-09-25T06:17:18.142Z,90.6
2017-09-25T06:18:19.536Z,90.9
2017-09-25T06:19:20.928Z,91.2
2017-09-25T06:20:22.320Z,90.9
2017-09-25T06:21:23.709Z,90.7
2017-09-25T06:22:25.102Z,91.0
2017-09-25T06:23:26.491Z,90.4
2017-09-25T06:24:27.882Z,90.8
2017-09-25T06:25:29.274Z,90.9
2017-09-25T06:26:30.669Z,91.1
2017-09-25T06:27:32.055Z,90.9
2017-09-25T06:28:33.451Z,90.9
2017-09-25T06:29:34.840Z,90.7
2017-09-25T06:30:36.230Z,90.7
2017-09-25T06:31:37.620Z,91.2
2017-09-25T06:32:39.011Z,91.0
2017-09-25T06:33:40.404Z,90.8
2017-09-25T06:34:41.796Z,90.6
2017-09-25T06:35:43.187Z,90.6
2017-09-25T06:36:44.580Z,91.1
2017-09-25T06:37:45.975Z,90.6
2017-09-25T06:38:47.370Z,90.9
2017-09-25T06:39:48.761Z,90.5
2017-09-25T06:40:50.156Z,90.9
2017-09-25T06:41:51.548Z,90.8
2017-09-25T06:42:52.944Z,90.8
2017-09-25T06:43:54.339Z,90.8
2017-09-25T06:44:55.731Z,91.3
2017-09-25T06:45:57.124Z,91.2
2017-09-25T06:46:58.519Z,91.2
2017-09-25T06:47:59.912Z,91.4
2017-09-25T06:49:01.304Z,91.6
2017-09-25T06:50:02.702Z,91.7
2017-09-25T06:51:04.100Z,91.6
2017-09-25T06:52:05.490Z,91.5
2017-09-25T06:53:06.881Z,91.3
2017-09-25T06:54:08.270Z,91.5
2017-09-25T06:55:09.666Z,91.2
2017-09-25T06:56:11.064Z,91.9
2017-09-25T06:57:12.457Z,91.6
2017-09-25T06:58:13.849Z,90.9
2017-09-25T06:59:15.240Z,91.2
2017-09-25T07:00:16.629Z,91.6
2017-09-25T07:01:18.023Z,91.5
2017-09-25T07:02:19.457Z,91.4
2017-09-25T07:03:20.813Z,91.3
2017-09-25T07:04:22.208Z,91.3
2017-09-25T07:05:23.603Z,91.4
2017-09-25T07:06:24.996Z,92.0
2017-09-25T07:07:26.386Z,91.8
2017-09-25T07:08:27.779Z,91.3
2017-09-25T07:09:29.170Z,91.3
2017-09-25T07:10:30.564Z,92.1
2017-09-25T07:11:31.958Z,91.5
2017-09-25T07:12:33.354Z,91.4
2017-09-25T07:13:34.748Z,91.5
2017-09-25T07:14:36.138Z,91.6
2017-09-25T07:15:37.528Z,92.2
2017-09-25T07:16:38.924Z,91.8
2017-09-25T07:17:40.319Z,92.4
2017-09-25T07:18:41.713Z,92.7
2017-09-25T07:19:43.110Z,92.4
2017-09-25T07:20:44.501Z,92.0
2017-09-25T07:21:45.892Z,92.1
2017-09-25T07:22:47.287Z,91.9
2017-09-25T07:23:48.682Z,92.1
2017-09-25T07:24:50.077Z,92.0
2017-09-25T07:25:51.473Z,92.6
2017-09-25T07:26:52.866Z,92.0
2017-09-25T07:27:54.259Z,91.3
2017-09-25T07:28:55.651Z,91.9
2017-09-25T07:29:57.041Z,91.5
2017-09-25T07:30:58.429Z,91.5
2017-09-25T07:31:59.833Z,92.0
2017-09-25T07:33:01.276Z,91.7
2017-09-25T07:34:02.673Z,91.7
2017-09-25T07:35:04.059Z,91.8
2017-09-25T07:36:05.451Z,91.5
2017-09-25T07:37:06.843Z,91.0
2017-09-25T07:38:08.239Z,91.1
2017-09-25T07:39:09.632Z,91.4
2017-09-25T07:40:11.030Z,90.9
2017-09-25T07:41:12.428Z,91.1
2017-09-25T07:42:13.819Z,90.8
2017-09-25T07:43:15.210Z,90.9
2017-09-25T07:44:16.608Z,90.2
2017-09-25T07:45:18.003Z,90.2
2017-09-25T07:46:19.404Z,90.5
2017-09-25T07:47:20.798Z,90.5
2017-09-25T07:48:22.196Z,90.2
2017-09-25T07:49:23.592Z,90.3
2017-09-25T07:50:24.983Z,89.9
2017-09-25T07:51:26.376Z,90.0
2017-09-25T07:52:27.773Z,90.2
2017-09-25T07:53:29.171Z,90.0
2017-09-25T07:54:30.569Z,89.7
2017-09-25T07:55:31.965Z,89.6
2017-09-25T07:56:33.362Z,89.1
2017-09-25T07:57:34.757Z,88.8
2017-09-25T07:58:36.151Z,89.1
2017-09-25T07:59:37.547Z,89.4
2017-09-25T08:00:38.944Z,89.2
2017-09-25T08:01:40.343Z,89.6
2017-09-25T08:02:41.739Z,89.2
2017-09-25T08:03:43.136Z,89.1
2017-09-25T08:04:44.526Z,89.3
2017-09-25T08:05:45.927Z,89.6
2017-09-25T08:06:47.317Z,89.5
2017-09-25T08:07:48.710Z,89.0
2017-09-25T08:08:50.108Z,89.3
2017-09-25T08:09:51.503Z,89.5
2017-09-25T08:10:52.898Z,89.0
2017-09-25T08:11:54.294Z,88.8
2017-09-25T08:12:55.690Z,87.6
2017-09-25T08:13:57.085Z,87.9
2017-09-25T08:14:58.479Z,87.6
2017-09-25T08:15:59.878Z,87.8
2017-09-25T08:17:01.274Z,87.3
2017-09-25T08:18:02.664Z,87.7
2017-09-25T08:19:04.093Z,87.6
2017-09-25T08:20:05.456Z,87.4
2017-09-25T08:21:06.851Z,87.1
2017-09-25T08:22:08.247Z,87.0
2017-09-25T08:23:09.647Z,86.7
2017-09-25T08:24:11.045Z,86.2
2017-09-25T08:25:12.440Z,85.8
2017-09-25T08:26:13.844Z,85.5
2017-09-25T08:27:15.236Z,85.6
2017-09-25T08:28:16.629Z,85.5
2017-09-25T08:29:18.023Z,85.9
2017-09-25T08:30:19.475Z,85.3
2017-09-25T08:31:20.835Z,84.7
2017-09-25T08:32:22.230Z,84.6
2017-09-25T08:33:23.625Z,84.1
2017-09-25T08:34:25.022Z,84.0
2017-09-25T08:35:26.421Z,84.0
2017-09-25T08:36:27.816Z,84.5
2017-09-25T08:37:29.214Z,84.1
2017-09-25T08:38:30.613Z,84.4
2017-09-25T08:39:32.008Z,84.9
2017-09-25T08:40:33.403Z,84.3
2017-09-25T08:41:34.797Z,83.5
2017-09-25T08:42:36.191Z,83.9
2017-09-25T08:43:37.588Z,83.0
2017-09-25T08:44:38.987Z,82.9
2017-09-25T08:45:40.383Z,82.5
2017-09-25T08:46:41.777Z,82.1
2017-09-25T08:47:43.173Z,82.2
2017-09-25T08:48:44.569Z,81.4
2017-09-25T08:49:45.971Z,81.0
2017-09-25T08:50:47.360Z,80.3
2017-09-25T08:51:48.758Z,80.1
2017-09-25T08:52:50.156Z,79.9
2017-09-25T08:53:51.551Z,79.3
2017-09-25T08:54:52.947Z,79.3
2017-09-25T08:55:54.344Z,80.8
2017-09-25T08:56:55.741Z,79.9
2017-09-25T08:57:57.147Z,79.8
2017-09-25T08:58:58.539Z,79.7
2017-09-25T08:59:59.939Z,80.0
2017-09-25T09:01:01.334Z,79.7
2017-09-25T09:02:02.730Z,79.1
2017-09-25T09:03:04.128Z,79.8
2017-09-25T09:04:05.527Z,79.2
2017-09-25T09:05:06.924Z,77.9
2017-09-25T09:06:08.324Z,77.3
2017-09-25T09:07:09.722Z,77.5
2017-09-25T09:08:11.118Z,77.0
2017-09-25T09:09:12.514Z,76.7
2017-09-25T09:10:13.944Z,75.6
2017-09-25T09:11:15.343Z,74.5
2017-09-25T09:12:16.742Z,72.4
2017-09-25T09:13:18.148Z,71.6
2017-09-25T09:14:19.549Z,69.6
2017-09-25T09:15:20.948Z,68.4
2017-09-25T09:16:22.348Z,68.0
2017-09-25T09:17:23.747Z,65.9
2017-09-25T09:18:25.169Z,65.7
2017-09-25T09:19:26.571Z,63.9
2017-09-25T09:20:27.973Z,62.5
2017-09-25T09:21:29.375Z,61.0
2017-09-25T09:22:30.775Z,60.7
2017-09-25T09:23:32.177Z,59.1
2017-09-25T09:24:33.577Z,58.7
2017-09-25T09:25:34.983Z,57.4
2017-09-25T09:26:36.387Z,56.4
2017-09-25T09:27:37.792Z,56.2
2017-09-25T09:28:39.198Z,55.7
2017-09-25T09:29:40.601Z,54.4
2017-09-25T09:30:42.005Z,54.4
2017-09-25T09:31:43.408Z,53.2
2017-09-25T09:32:44.811Z,52.4
2017-09-25T09:33:46.218Z,52.7
2017-09-25T09:34:47.623Z,51.5
2017-09-25T09:35:49.032Z,50.8
2017-09-25T09:36:50.438Z,50.6
2017-09-25T09:37:51.842Z,50.1
2017-09-25T09:38:53.244Z,49.5
2017-09-25T09:39:54.649Z,48.6
2017-09-25T09:40:56.058Z,48.1
2017-09-25T09:41:57.462Z,47.8
2017-09-25T09:42:58.871Z,46.8
2017-09-25T09:44:00.276Z,46.2
2017-09-25T09:45:01.691Z,45.8
2017-09-25T09:46:03.091Z,44.7
2017-09-25T09:47:04.501Z,45.3
2017-09-25T09:48:05.906Z,45.4
2017-09-25T09:49:07.350Z,44.9
2017-09-25T09:50:08.732Z,43.9
2017-09-25T09:51:10.138Z,43.6
2017-09-25T09:52:11.544Z,43.3
2017-09-25T09:53:12.952Z,43.1
2017-09-25T09:54:14.360Z,43.2
2017-09-25T09:55:15.770Z,43.7
2017-09-25T09:56:17.180Z,43.1
2017-09-25T09:57:18.588Z,41.8
2017-09-25T09:58:19.993Z,40.9
2017-09-25T09:59:21.402Z,40.9
2017-09-25T10:00:22.808Z,40.8
2017-09-25T10:01:24.216Z,39.8
2017-09-25T10:02:25.625Z,39.1
2017-09-25T10:03:27.038Z,38.0
2017-09-25T10:04:28.469Z,38.1
2017-09-25T10:05:29.878Z,36.9
2017-09-25T10:06:31.287Z,36.8
2017-09-25T10:07:32.695Z,36.3
2017-09-25T10:08:34.103Z,36.3
2017-09-25T10:09:35.515Z,36.5
2017-09-25T10:10:36.925Z,36.1
2017-09-25T10:11:38.335Z,35.2
2017-09-25T10:12:39.744Z,34.9
2017-09-25T10:13:41.153Z,35.0
2017-09-25T10:14:42.563Z,34.8
2017-09-25T10:15:43.977Z,34.9
2017-09-25T10:16:45.388Z,34.2
2017-09-25T10:17:46.799Z,34.2
2017-09-25T10:18:48.210Z,34.6
2017-09-25T10:19:49.622Z,34.1
2017-09-25T10:20:51.030Z,34.1
2017-09-25T10:21:52.438Z,33.9
2017-09-25T10:22:53.850Z,33.5
2017-09-25T10:23:55.261Z,33.1
2017-09-25T10:24:56.675Z,33.1
2017-09-25T10:25:58.085Z,31.5
2017-09-25T10:26:59.492Z,30.7
2017-09-25T10:28:00.902Z,30.1
2017-09-25T10:29:02.310Z,29.5
2017-09-25T10:30:03.720Z,31.0
2017-09-25T10:31:05.129Z,30.2
2017-09-25T10:32:06.535Z,30.5
2017-09-25T10:33:07.944Z,31.1
2017-09-25T10:34:09.351Z,29.6
2017-09-25T10:35:10.756Z,29.7
2017-09-25T10:36:12.160Z,28.7
2017-09-25T10:37:13.568Z,28.8
2017-09-25T10:38:14.979Z,29.1
2017-09-25T10:39:16.384Z,30.1
2017-09-25T10:40:17.794Z,30.7
2017-09-25T10:41:19.196Z,32.1
2017-09-25T10:42:20.603Z,32.6
2017-09-25T10:43:22.006Z,32.3
2017-09-25T10:44:23.413Z,33.1
2017-09-25T10:45:24.817Z,33.3
2017-09-25T10:46:26.336Z,33.2
2017-09-25T10:47:27.854Z,35.0
2017-09-25T10:48:29.251Z,35.7
2017-09-25T10:49:30.657Z,37.0
2017-09-25T10:50:32.058Z,37.8
2017-09-25T10:51:33.598Z,39.1
2017-09-25T10:52:35.009Z,39.0
2017-09-25T10:53:36.433Z,39.6
2017-09-25T10:54:37.829Z,40.0
2017-09-25T10:55:39.230Z,39.4
2017-09-25T10:56:40.634Z,39.7
2017-09-25T10:57:42.037Z,41.4
2017-09-25T10:58:43.441Z,40.6
2017-09-25T10:59:44.844Z,41.2
2017-09-25T11:00:46.245Z,41.3
2017-09-25T11:01:47.653Z,41.4
2017-09-25T11:02:49.055Z,41.9
2017-09-25T11:03:50.457Z,42.7
2017-09-25T11:04:51.859Z,42.6
2017-09-25T11:05:53.264Z,43.5
2017-09-25T11:06:54.666Z,45.0
2017-09-25T11:07:56.072Z,45.0
2017-09-25T11:08:57.475Z,45.3
2017-09-25T11:09:58.883Z,45.3
2017-09-25T11:11:00.281Z,45.5
2017-09-25T11:12:01.684Z,45.8
2017-09-25T11:13:03.088Z,45.4
2017-09-25T11:14:04.501Z,45.0
2017-09-25T11:15:05.904Z,45.2
2017-09-25T11:16:07.302Z,46.1
2017-09-25T11:17:08.706Z,45.6
2017-09-25T11:18:10.111Z,45.7
2017-09-25T11:19:11.511Z,44.7
2017-09-25T11:20:12.913Z,44.3
2017-09-25T11:21:14.317Z,44.5
2017-09-25T11:22:15.725Z,44.5
2017-09-25T11:23:17.128Z,41.8
2017-09-25T11:24:18.530Z,41.3
2017-09-25T11:25:19.931Z,41.3
2017-09-25T11:26:21.336Z,40.9
2017-09-25T11:27:22.740Z,39.7
2017-09-25T11:28:24.146Z,40.5
2017-09-25T11:29:25.549Z,41.1
2017-09-25T11:30:26.956Z,41.5
2017-09-25T11:31:28.368Z,40.8
2017-09-25T11:32:29.770Z,41.7
2017-09-25T11:33:31.170Z,41.5
2017-09-25T11:34:32.573Z,41.8
2017-09-25T11:35:33.977Z,40.1
2017-09-25T11:36:35.382Z,40.6
2017-09-25T11:37:36.798Z,41.2
2017-09-25T11:38:38.199Z,41.8
2017-09-25T11:39:39.603Z,42.2
2017-09-25T11:40:41.007Z,42.2
2017-09-25T11:41:42.412Z,41.1
2017-09-25T11:42:43.813Z,40.7
2017-09-25T11:43:45.218Z,39.6
2017-09-25T11:44:46.661Z,40.5
2017-09-25T11:45:48.055Z,39.7
2017-09-25T11:46:49.464Z,40.3
2017-09-25T11:47:50.864Z,39.7
2017-09-25T11:48:52.270Z,39.8
2017-09-25T11:49:53.672Z,39.6
2017-09-25T11:50:55.075Z,39.2
2017-09-25T11:51:56.480Z,39.6
2017-09-25T11:52:57.883Z,39.4
2017-09-25T11:53:59.285Z,40.1
2017-09-25T11:55:00.686Z,39.2
2017-09-25T11:56:02.091Z,39.2
2017-09-25T11:57:03.496Z,39.3
2017-09-25T11:58:04.903Z,39.9
2017-09-25T11:59:06.307Z,40.2
2017-09-25T12:00:07.711Z,38.8
2017-09-25T12:01:09.112Z,39.7
2017-09-25T12:02:10.518Z,37.9
2017-09-25T12:03:11.922Z,38.4
2017-09-25T12:04:13.328Z,38.2
2017-09-25T12:05:14.733Z,37.5
2017-09-25T12:06:16.329Z,38.9
2017-09-25T12:07:17.742Z,38.2
2017-09-25T12:08:19.141Z,37.3
2017-09-25T12:09:20.542Z,37.3
2017-09-25T12:10:21.946Z,36.7
2017-09-25T12:11:23.349Z,36.3
2017-09-25T12:12:24.754Z,36.6
2017-09-25T12:13:26.158Z,37.9
2017-09-25T12:14:27.560Z,39.3
2017-09-25T12:15:28.965Z,38.3
2017-09-25T12:16:30.367Z,37.9
2017-09-25T12:17:31.773Z,38.7
2017-09-25T12:18:33.172Z,39.7
2017-09-25T12:19:34.575Z,40.0
2017-09-25T12:20:35.979Z,40.5
2017-09-25T12:21:37.378Z,40.5
2017-09-25T12:22:38.805Z,40.2
2017-09-25T12:23:40.208Z,39.3
2017-09-25T12:24:41.612Z,39.1
2017-09-25T12:25:43.015Z,39.1
2017-09-25T12:26:44.419Z,39.2
2017-09-25T12:27:45.829Z,38.2
2017-09-25T12:28:47.231Z,38.8
2017-09-25T12:29:48.633Z,38.3
2017-09-25T12:30:50.042Z,38.9
2017-09-25T12:31:51.456Z,39.3
2017-09-25T12:32:52.861Z,39.8
2017-09-25T12:33:54.263Z,40.0
2017-09-25T12:34:55.674Z,40.2
2017-09-25T12:35:57.070Z,40.6
2017-09-25T12:36:58.468Z,41.4
2017-09-25T12:37:59.869Z,40.8
2017-09-25T12:39:01.274Z,41.1
2017-09-25T12:40:02.678Z,41.5
2017-09-25T12:41:04.083Z,41.5
2017-09-25T12:42:05.488Z,41.3
2017-09-25T12:43:06.895Z,41.0
2017-09-25T12:44:08.297Z,40.8
2017-09-25T12:45:09.697Z,39.8
2017-09-25T12:46:11.101Z,39.7
2017-09-25T12:47:12.508Z,39.7
2017-09-25T12:48:13.907Z,39.7
2017-09-25T12:49:15.313Z,41.0
2017-09-25T12:50:16.712Z,41.7
2017-09-25T12:51:18.115Z,41.9
2017-09-25T12:52:19.516Z,42.4
2017-09-25T12:53:20.916Z,43.1
2017-09-25T12:54:22.316Z,43.5
2017-09-25T12:55:23.719Z,44.0
2017-09-25T12:56:25.128Z,44.4
2017-09-25T12:57:26.523Z,44.8
2017-09-25T12:58:27.924Z,45.2
2017-09-25T12:59:29.329Z,45.1
2017-09-25T13:00:30.731Z,46.0
2017-09-25T13:01:32.134Z,43.9
2017-09-25T13:02:33.538Z,43.5
2017-09-25T13:03:34.946Z,42.8
2017-09-25T13:04:36.347Z,41.8
2017-09-25T13:05:37.746Z,42.5
2017-09-25T13:06:39.148Z,42.8
2017-09-25T13:07:40.552Z,43.0
2017-09-25T13:08:41.954Z,41.7
2017-09-25T13:09:43.358Z,40.5
2017-09-25T13:10:44.760Z,40.3
2017-09-25T13:11:46.165Z,41.4
2017-09-25T13:12:47.568Z,40.6
2017-09-25T13:13:48.970Z,40.3
2017-09-25T13:14:50.370Z,40.6
2017-09-25T13:15:51.775Z,39.7
2017-09-25T13:16:53.175Z,39.3
2017-09-25T13:17:54.581Z,38.8
2017-09-25T13:18:55.980Z,39.3
2017-09-25T13:19:57.383Z,39.0
2017-09-25T13:20:58.784Z,39.5
2017-09-25T13:22:00.187Z,39.1
2017-09-25T13:23:01.594Z,38.4
2017-09-25T13:24:02.992Z,39.6
2017-09-25T13:25:04.398Z,38.9
2017-09-25T13:26:05.799Z,38.9
2017-09-25T13:27:07.201Z,39.1
2017-09-25T13:28:08.603Z,39.8
2017-09-25T13:29:10.006Z,39.5
2017-09-25T13:30:11.407Z,38.1
2017-09-25T13:31:12.808Z,37.4
2017-09-25T13:32:14.210Z,38.8
2017-09-25T13:33:15.619Z,39.6
2017-09-25T13:34:17.017Z,39.6
2017-09-25T13:35:18.422Z,39.9
2017-09-25T13:36:19.822Z,39.8
2017-09-25T13:37:21.224Z,39.3